Time;durP1;ratioP1;P1;durP2;ratioP2;P2;SDS_P1;SDS_P2;PMS_P1;PMS_P2;Temp;Humidity;BMP_temperature;BMP_pressure;BME280_temperature;BME280_humidity;BME280_pressure;Samples;Min_cycle;Max_cycle;Signal;HPM_P1;HPM_P2
2022/02/17 00:02:14;;;;;;;113.55;56.20;;;;;;;;;;5084473;28;20199;-92
2022/02/17 00:04:42;;;;;;;113.60;56.78;;;;;;;;;;5082243;28;20199;-91
2022/02/17 00:07:09;;;;;;;113.78;53.38;;;;;;;;;;5082356;28;20739;-91
2022/02/17 00:09:35;;;;;;;117.72;54.83;;;;;;;;;;5084292;28;20600;-91
2022/02/17 00:12:02;;;;;;;115.55;55.33;;;;;;;;;;5084298;28;20270;-91
2022/02/17 00:14:28;;;;;;;111.28;52.80;;;;;;;;;;5083334;28;20204;-91
2022/02/17 00:16:55;;;;;;;117.45;56.00;;;;;;;;;;5083663;28;20229;-91
2022/02/17 00:19:21;;;;;;;114.03;53.88;;;;;;;;;;5084498;28;20225;-91
2022/02/17 00:21:49;;;;;;;115.07;55.35;;;;;;;;;;5084676;28;20203;-92
2022/02/17 00:24:16;;;;;;;123.93;58.80;;;;;;;;;;5083863;28;20472;-92
2022/02/17 00:26:43;;;;;;;121.20;57.90;;;;;;;;;;5083870;28;20203;-91
2022/02/17 00:29:09;;;;;;;122.95;55.47;;;;;;;;;;5084348;28;20227;-92
2022/02/17 00:31:36;;;;;;;109.55;54.03;;;;;;;;;;5084187;28;20682;-92
2022/02/17 00:34:02;;;;;;;110.53;55.38;;;;;;;;;;5084337;28;20256;-92
2022/02/17 00:36:29;;;;;;;117.28;54.35;;;;;;;;;;5084119;28;20199;-92
2022/02/17 00:38:57;;;;;;;108.53;54.10;;;;;;;;;;5082781;28;20226;-91
2022/02/17 00:41:23;;;;;;;114.40;54.03;;;;;;;;;;5082911;28;20207;-92
2022/02/17 00:43:50;;;;;;;121.05;55.63;;;;;;;;;;5082608;28;20225;-92
2022/02/17 00:46:16;;;;;;;112.45;55.78;;;;;;;;;;5084109;28;20207;-91
2022/02/17 00:48:43;;;;;;;118.68;53.58;;;;;;;;;;5083620;28;20281;-91
2022/02/17 00:51:09;;;;;;;117.57;58.58;;;;;;;;;;5083928;28;20203;-92
2022/02/17 00:53:36;;;;;;;112.18;54.70;;;;;;;;;;5083504;28;20230;-92
2022/02/17 00:56:04;;;;;;;111.93;55.30;;;;;;;;;;5083315;28;20207;-92
2022/02/17 00:58:30;;;;;;;110.95;53.92;;;;;;;;;;5083376;28;20268;-92
2022/02/17 01:00:57;;;;;;;114.90;54.15;;;;;;;;;;5063168;28;20199;-92
2022/02/17 01:03:23;;;;;;;118.40;56.80;;;;;;;;;;5062820;28;20204;-91
2022/02/17 01:05:49;;;;;;;114.60;54.45;;;;;;;;;;5061982;28;20200;-91
2022/02/17 01:08:16;;;;;;;115.43;55.47;;;;;;;;;;5061893;28;20207;-92
2022/02/17 01:10:42;;;;;;;115.50;56.72;;;;;;;;;;5061796;28;20745;-91
2022/02/17 01:13:10;;;;;;;122.07;57.90;;;;;;;;;;5062280;28;20200;-91
2022/02/17 01:15:37;;;;;;;121.40;58.83;;;;;;;;;;5062440;28;20223;-91
2022/02/17 01:18:04;;;;;;;121.32;58.15;;;;;;;;;;5061911;28;20203;-92
2022/02/17 01:20:31;;;;;;;116.85;57.60;;;;;;;;;;5077379;28;20233;-92
2022/02/17 01:22:57;;;;;;;121.10;58.88;;;;;;;;;;5082166;28;20753;-92
2022/02/17 01:25:23;;;;;;;120.10;58.00;;;;;;;;;;5082013;28;20199;-92
2022/02/17 01:27:51;;;;;;;118.28;56.33;;;;;;;;;;5082453;28;20211;-92
2022/02/17 01:30:19;;;;;;;122.15;56.75;;;;;;;;;;5082783;28;20291;-91
2022/02/17 01:32:46;;;;;;;130.30;59.38;;;;;;;;;;5082838;28;20199;-92
2022/02/17 01:35:12;;;;;;;124.88;59.35;;;;;;;;;;5081623;28;20199;-92
2022/02/17 01:37:39;;;;;;;118.68;56.13;;;;;;;;;;5082133;28;20235;-94
2022/02/17 01:40:06;;;;;;;121.47;58.30;;;;;;;;;;5082096;28;20285;-92
2022/02/17 01:42:32;;;;;;;128.95;60.58;;;;;;;;;;5082316;28;20229;-91
2022/02/17 01:45:02;;;;;;;125.95;59.50;;;;;;;;;;5080552;28;20327;-92
2022/02/17 01:47:30;;;;;;;118.28;56.20;;;;;;;;;;5081324;28;20203;-92
2022/02/17 01:49:56;;;;;;;120.28;58.50;;;;;;;;;;5081829;28;20223;-91
2022/02/17 01:52:23;;;;;;;130.15;58.63;;;;;;;;;;5082072;28;20232;-91
2022/02/17 01:54:49;;;;;;;118.43;58.55;;;;;;;;;;5080180;28;20196;-92
2022/02/17 01:57:16;;;;;;;115.25;55.30;;;;;;;;;;5080619;28;20196;-91
2022/02/17 01:59:44;;;;;;;129.35;59.38;;;;;;;;;;5081673;28;20221;-91
2022/02/17 02:02:10;;;;;;;118.93;57.05;;;;;;;;;;5081874;28;20207;-92
2022/02/17 02:04:38;;;;;;;117.60;56.10;;;;;;;;;;5080713;28;20202;-92
2022/02/17 02:07:05;;;;;;;120.20;57.47;;;;;;;;;;5080472;28;20225;-91
2022/02/17 02:09:31;;;;;;;121.13;55.85;;;;;;;;;;5081643;28;20714;-91
2022/02/17 02:11:58;;;;;;;111.72;54.88;;;;;;;;;;5082004;28;20222;-92
2022/02/17 02:14:25;;;;;;;120.35;56.08;;;;;;;;;;5079016;28;20559;-92
2022/02/17 02:16:52;;;;;;;127.25;56.85;;;;;;;;;;5062209;28;20572;-91
2022/02/17 02:19:19;;;;;;;119.65;56.83;;;;;;;;;;5061875;28;20929;-92
2022/02/17 02:21:47;;;;;;;111.78;55.88;;;;;;;;;;5061667;28;20203;-92
2022/02/17 02:24:14;;;;;;;112.30;54.17;;;;;;;;;;5062253;28;20208;-91
2022/02/17 02:26:40;;;;;;;116.70;56.58;;;;;;;;;;5061667;28;20226;-92
2022/02/17 02:29:07;;;;;;;113.78;55.20;;;;;;;;;;5062350;28;20236;-91
2022/02/17 02:31:33;;;;;;;110.80;55.17;;;;;;;;;;5062060;28;20285;-91
2022/02/17 02:34:00;;;;;;;112.47;55.80;;;;;;;;;;5061557;28;20688;-92
2022/02/17 02:36:26;;;;;;;116.13;57.55;;;;;;;;;;5061228;28;20200;-92
2022/02/17 02:38:54;;;;;;;118.05;55.38;;;;;;;;;;5061463;28;20323;-91
2022/02/17 02:41:21;;;;;;;113.97;54.40;;;;;;;;;;5061931;28;20277;-92
2022/02/17 02:43:47;;;;;;;109.90;54.42;;;;;;;;;;5061782;28;20216;-92
2022/02/17 02:46:14;;;;;;;110.10;52.40;;;;;;;;;;5062104;28;20200;-91
2022/02/17 02:48:40;;;;;;;112.05;53.10;;;;;;;;;;5061508;28;20199;-91
2022/02/17 02:51:09;;;;;;;120.28;57.50;;;;;;;;;;5060982;28;20231;-91
2022/02/17 02:53:35;;;;;;;109.85;52.08;;;;;;;;;;5061104;28;20206;-91
2022/02/17 02:56:03;;;;;;;115.10;55.00;;;;;;;;;;5061194;28;20226;-91
2022/02/17 02:58:30;;;;;;;115.50;54.20;;;;;;;;;;5061094;28;20204;-91
2022/02/17 03:00:56;;;;;;;117.03;55.83;;;;;;;;;;5060212;28;20200;-92
2022/02/17 03:03:23;;;;;;;109.90;53.50;;;;;;;;;;5060535;28;20744;-92
2022/02/17 03:05:49;;;;;;;118.25;56.00;;;;;;;;;;5061546;28;20204;-91
2022/02/17 03:08:15;;;;;;;112.32;54.20;;;;;;;;;;5064802;28;20258;-91
2022/02/17 03:10:44;;;;;;;112.00;53.85;;;;;;;;;;5065486;28;20289;-92
2022/02/17 03:13:12;;;;;;;106.90;51.85;;;;;;;;;;5065578;28;20774;-91
2022/02/17 03:15:39;;;;;;;114.93;55.03;;;;;;;;;;5065582;28;20226;-91
2022/02/17 03:18:06;;;;;;;124.15;58.42;;;;;;;;;;5065339;28;20207;-92
2022/02/17 03:20:32;;;;;;;126.00;59.03;;;;;;;;;;5065422;28;20271;-91
2022/02/17 03:22:59;;;;;;;127.35;59.90;;;;;;;;;;5065111;28;20208;-92
2022/02/17 03:25:25;;;;;;;135.98;60.00;;;;;;;;;;5064633;28;20258;-92
2022/02/17 03:27:51;;;;;;;132.55;60.08;;;;;;;;;;5065019;28;20211;-91
2022/02/17 03:30:19;;;;;;;130.60;59.22;;;;;;;;;;5065261;28;20223;-92
2022/02/17 03:32:46;;;;;;;130.23;58.17;;;;;;;;;;5065090;28;20250;-92
2022/02/17 03:35:13;;;;;;;121.90;56.78;;;;;;;;;;5064070;28;20188;-92
2022/02/17 03:37:39;;;;;;;127.35;56.85;;;;;;;;;;5064204;28;20263;-92
2022/02/17 03:40:06;;;;;;;123.18;57.58;;;;;;;;;;5064133;28;20203;-92
2022/02/17 03:42:33;;;;;;;125.90;58.03;;;;;;;;;;5064012;28;20212;-92
2022/02/17 03:44:59;;;;;;;121.28;57.00;;;;;;;;;;5064833;28;20204;-92
2022/02/17 03:47:27;;;;;;;117.90;57.50;;;;;;;;;;5064684;28;20253;-91
2022/02/17 03:49:53;;;;;;;121.75;56.70;;;;;;;;;;5063976;28;20227;-92
2022/02/17 03:52:20;;;;;;;112.70;54.80;;;;;;;;;;5063972;28;20253;-91
2022/02/17 03:54:46;;;;;;;122.78;56.70;;;;;;;;;;5064374;28;20200;-91
2022/02/17 03:57:13;;;;;;;124.97;59.13;;;;;;;;;;5063997;28;20196;-92
2022/02/17 03:59:39;;;;;;;120.25;55.70;;;;;;;;;;5064803;28;20226;-91
2022/02/17 04:02:06;;;;;;;113.18;55.53;;;;;;;;;;5064770;28;20200;-91
2022/02/17 04:04:34;;;;;;;121.85;56.60;;;;;;;;;;5064882;28;20203;-91
2022/02/17 04:07:00;;;;;;;116.85;55.25;;;;;;;;;;5064744;28;20254;-92
2022/02/17 04:09:27;;;;;;;114.95;53.75;;;;;;;;;;5064747;28;20875;-92
2022/02/17 04:11:53;;;;;;;116.35;55.55;;;;;;;;;;5064604;28;20196;-92
2022/02/17 04:14:20;;;;;;;112.90;53.70;;;;;;;;;;5063134;28;20235;-92
2022/02/17 04:16:47;;;;;;;117.18;55.17;;;;;;;;;;5062120;28;20726;-92
2022/02/17 04:19:13;;;;;;;119.10;55.85;;;;;;;;;;5062966;28;20287;-92
2022/02/17 04:21:41;;;;;;;134.23;57.65;;;;;;;;;;5062828;28;20233;-92
2022/02/17 04:24:08;;;;;;;121.32;58.03;;;;;;;;;;5063751;28;20227;-91
2022/02/17 04:26:34;;;;;;;125.70;57.78;;;;;;;;;;5063498;28;20258;-92
2022/02/17 04:29:01;;;;;;;115.03;53.33;;;;;;;;;;5063771;28;20200;-92
2022/02/17 04:31:27;;;;;;;112.80;54.53;;;;;;;;;;5063617;28;20220;-92
2022/02/17 04:33:54;;;;;;;121.85;56.53;;;;;;;;;;5063524;28;20267;-92
2022/02/17 04:36:21;;;;;;;127.40;59.72;;;;;;;;;;5062741;28;21023;-92
2022/02/17 04:38:48;;;;;;;119.97;58.08;;;;;;;;;;5063472;28;20285;-92
2022/02/17 04:43:59;;;;;;;122.85;58.30;;;;;;;;;;5063457;28;20199;-92
2022/02/17 04:46:25;;;;;;;133.45;61.13;;;;;;;;;;5062932;28;20231;-91
2022/02/17 04:48:52;;;;;;;127.18;59.08;;;;;;;;;;5063707;28;20203;-91
2022/02/17 04:51:19;;;;;;;121.95;58.20;;;;;;;;;;5063604;28;20254;-91
2022/02/17 04:53:45;;;;;;;133.05;63.17;;;;;;;;;;5060415;28;20229;-92
2022/02/17 04:56:13;;;;;;;124.57;61.17;;;;;;;;;;5067970;28;20249;-92
2022/02/17 04:58:40;;;;;;;132.15;61.00;;;;;;;;;;5080792;28;21856;-92
2022/02/17 05:01:06;;;;;;;126.67;60.50;;;;;;;;;;5082347;28;20241;-92
2022/02/17 05:03:32;;;;;;;122.72;57.22;;;;;;;;;;5083627;28;20445;-92
2022/02/17 05:06:02;;;;;;;125.38;60.80;;;;;;;;;;5082903;28;20276;-91
2022/02/17 05:08:28;;;;;;;131.10;59.65;;;;;;;;;;5083534;28;20196;-91
2022/02/17 05:10:55;;;;;;;122.55;58.83;;;;;;;;;;5083165;28;20249;-91
2022/02/17 05:13:23;;;;;;;125.75;59.03;;;;;;;;;;5083122;28;20203;-92
2022/02/17 05:15:50;;;;;;;118.75;57.60;;;;;;;;;;5082184;28;20207;-92
2022/02/17 05:18:16;;;;;;;121.93;58.60;;;;;;;;;;5082831;28;20212;-92
2022/02/17 05:20:42;;;;;;;124.25;59.15;;;;;;;;;;5082678;28;20199;-92
2022/02/17 05:23:10;;;;;;;134.85;60.47;;;;;;;;;;5082547;28;20257;-92
2022/02/17 05:25:37;;;;;;;122.35;60.83;;;;;;;;;;5081371;28;20207;-91
2022/02/17 05:28:03;;;;;;;124.28;57.58;;;;;;;;;;5082272;28;20207;-92
2022/02/17 05:30:40;;;;;;;122.68;58.35;;;;;;;;;;5081978;28;20297;-92
2022/02/17 05:33:07;;;;;;;120.20;58.60;;;;;;;;;;5082206;28;20199;-92
2022/02/17 05:35:33;;;;;;;118.47;56.88;;;;;;;;;;5080835;28;20225;-92
2022/02/17 05:38:00;;;;;;;126.28;58.25;;;;;;;;;;5080998;28;21005;-92
2022/02/17 05:40:26;;;;;;;125.10;61.60;;;;;;;;;;5080515;28;20368;-91
2022/02/17 05:42:53;;;;;;;130.77;58.97;;;;;;;;;;5080866;28;20260;-92
2022/02/17 05:45:19;;;;;;;118.85;58.15;;;;;;;;;;5080551;28;20199;-92
2022/02/17 05:47:47;;;;;;;119.70;57.17;;;;;;;;;;5080773;28;20199;-91
2022/02/17 05:50:14;;;;;;;137.80;65.32;;;;;;;;;;5082184;28;20218;-91
2022/02/17 05:52:40;;;;;;;126.97;60.95;;;;;;;;;;5082142;28;20205;-91
2022/02/17 05:55:08;;;;;;;122.72;60.42;;;;;;;;;;5081228;28;20210;-91
2022/02/17 05:57:35;;;;;;;132.32;60.67;;;;;;;;;;5081148;28;20701;-91
2022/02/17 06:00:01;;;;;;;128.00;60.10;;;;;;;;;;5082255;28;20629;-91
2022/02/17 06:02:28;;;;;;;125.05;59.60;;;;;;;;;;5081939;28;20196;-91
2022/02/17 06:04:56;;;;;;;130.07;61.50;;;;;;;;;;5081803;28;20663;-91
2022/02/17 06:07:22;;;;;;;126.32;59.50;;;;;;;;;;5081535;28;20191;-91
2022/02/17 06:09:49;;;;;;;126.25;60.70;;;;;;;;;;5082702;28;20221;-91
2022/02/17 06:12:15;;;;;;;137.10;67.75;;;;;;;;;;5081890;28;20210;-91
2022/02/17 06:14:42;;;;;;;136.85;61.65;;;;;;;;;;5082366;28;20264;-91
2022/02/17 06:17:08;;;;;;;122.25;60.17;;;;;;;;;;5082004;28;20195;-91
2022/02/17 06:19:34;;;;;;;121.22;59.92;;;;;;;;;;5081741;28;20256;-91
2022/02/17 06:22:02;;;;;;;124.60;61.10;;;;;;;;;;5081265;28;20202;-91
2022/02/17 06:24:29;;;;;;;130.77;62.72;;;;;;;;;;5081931;28;20277;-91
2022/02/17 06:26:55;;;;;;;131.07;61.63;;;;;;;;;;5081334;28;20204;-91
2022/02/17 06:29:22;;;;;;;124.25;60.95;;;;;;;;;;5080367;28;20206;-91
2022/02/17 06:31:48;;;;;;;136.00;61.78;;;;;;;;;;5080117;28;20227;-91
2022/02/17 06:34:15;;;;;;;128.98;62.13;;;;;;;;;;5078175;28;20229;-91
2022/02/17 06:36:44;;;;;;;123.53;62.40;;;;;;;;;;5079123;28;20199;-91
2022/02/17 06:39:12;;;;;;;134.40;60.42;;;;;;;;;;5072293;28;20238;-91
2022/02/17 06:41:38;;;;;;;123.88;59.15;;;;;;;;;;5070411;28;20208;-91
2022/02/17 06:44:05;;;;;;;134.32;60.33;;;;;;;;;;5073825;28;20272;-92
2022/02/17 06:46:33;;;;;;;126.95;60.80;;;;;;;;;;5078729;28;20191;-91
2022/02/17 06:48:59;;;;;;;129.00;62.55;;;;;;;;;;5075888;28;20683;-91
2022/02/17 06:51:25;;;;;;;127.28;61.88;;;;;;;;;;5069570;28;20739;-91
2022/02/17 06:53:53;;;;;;;134.30;65.03;;;;;;;;;;5071267;28;20219;-92
2022/02/17 06:56:21;;;;;;;144.80;68.97;;;;;;;;;;5067545;28;20222;-91
2022/02/17 06:58:47;;;;;;;133.65;64.18;;;;;;;;;;5066836;28;20244;-91
2022/02/17 07:01:14;;;;;;;126.15;61.83;;;;;;;;;;5070361;28;20195;-91
2022/02/17 07:03:40;;;;;;;135.95;65.72;;;;;;;;;;5076450;28;20203;-92
2022/02/17 07:06:07;;;;;;;139.93;65.00;;;;;;;;;;5066900;28;20204;-92
2022/02/17 07:08:34;;;;;;;133.60;66.35;;;;;;;;;;5070355;28;20199;-91
2022/02/17 07:11:03;;;;;;;133.27;65.47;;;;;;;;;;5070546;28;20303;-91
2022/02/17 07:13:31;;;;;;;136.40;67.07;;;;;;;;;;5071729;28;20196;-91
2022/02/17 07:15:58;;;;;;;138.15;66.93;;;;;;;;;;5070671;28;20192;-91
2022/02/17 07:18:25;;;;;;;137.38;64.20;;;;;;;;;;5070932;28;20230;-91
2022/02/17 07:20:53;;;;;;;136.68;66.43;;;;;;;;;;5052427;28;20199;-92
2022/02/17 07:23:20;;;;;;;131.35;64.25;;;;;;;;;;5078909;28;20199;-91
2022/02/17 07:25:47;;;;;;;131.70;67.03;;;;;;;;;;5080238;28;20199;-91
2022/02/17 07:28:14;;;;;;;140.85;64.65;;;;;;;;;;5079094;28;20192;-91
2022/02/17 07:30:44;;;;;;;134.15;66.22;;;;;;;;;;5078932;28;20288;-92
2022/02/17 07:33:11;;;;;;;126.65;62.03;;;;;;;;;;5079521;28;20214;-92
2022/02/17 07:35:37;;;;;;;136.68;64.85;;;;;;;;;;5080363;28;20614;-92
2022/02/17 07:38:04;;;;;;;135.02;65.13;;;;;;;;;;5073057;28;20226;-92
2022/02/17 07:40:30;;;;;;;134.27;65.82;;;;;;;;;;5069089;28;20196;-96
2022/02/17 07:42:57;;;;;;;137.35;66.32;;;;;;;;;;5079837;28;20746;-94
2022/02/17 07:45:27;;;;;;;140.18;66.93;;;;;;;;;;5078814;28;20292;-96
2022/02/17 07:47:55;;;;;;;139.45;66.38;;;;;;;;;;5113496;22;20253;-92
2022/02/17 07:50:23;;;;;;;144.60;69.95;;;;;;;;;;5072765;28;20215;-91
2022/02/17 07:52:49;;;;;;;148.15;71.60;;;;;;;;;;5068716;28;20216;-92
2022/02/17 07:55:16;;;;;;;151.45;71.03;;;;;;;;;;5073883;28;20203;-92
2022/02/17 07:57:42;;;;;;;141.88;67.90;;;;;;;;;;5073902;28;20204;-92
2022/02/17 08:00:11;;;;;;;129.27;61.38;;;;;;;;;;5072255;28;20667;-92
2022/02/17 08:02:38;;;;;;;138.13;66.67;;;;;;;;;;5073799;28;20214;-92
2022/02/17 08:05:06;;;;;;;130.23;65.37;;;;;;;;;;5083025;28;20449;-92
2022/02/17 08:07:34;;;;;;;131.00;63.67;;;;;;;;;;5077356;28;20438;-91
2022/02/17 08:10:01;;;;;;;134.97;65.70;;;;;;;;;;5083360;28;20219;-96
2022/02/17 08:12:27;;;;;;;129.82;64.65;;;;;;;;;;5083337;28;20481;-95
2022/02/17 08:14:55;;;;;;;133.10;63.77;;;;;;;;;;5083720;28;20597;-95
2022/02/17 08:17:21;;;;;;;133.15;66.15;;;;;;;;;;5075122;28;20559;-96
2022/02/17 08:19:48;;;;;;;130.83;64.00;;;;;;;;;;5062282;28;20253;-96
2022/02/17 08:22:16;;;;;;;124.57;61.58;;;;;;;;;;5062569;28;20503;-92
2022/02/17 08:24:42;;;;;;;131.60;64.43;;;;;;;;;;5064185;28;20199;-92
2022/02/17 08:27:09;;;;;;;120.27;60.47;;;;;;;;;;5069008;28;20942;-92
2022/02/17 08:29:35;;;;;;;128.17;60.93;;;;;;;;;;5083726;28;20499;-92
2022/02/17 08:32:02;;;;;;;122.10;59.92;;;;;;;;;;5079804;28;20485;-91
2022/02/17 08:34:28;;;;;;;124.57;59.87;;;;;;;;;;5083988;28;20199;-92
2022/02/17 08:36:55;;;;;;;121.00;57.67;;;;;;;;;;5073940;28;20438;-93
2022/02/17 08:39:23;;;;;;;117.07;57.47;;;;;;;;;;5063794;28;20451;-92
2022/02/17 08:41:49;;;;;;;117.13;58.40;;;;;;;;;;5065744;28;20508;-93
2022/02/17 08:44:16;;;;;;;118.43;58.67;;;;;;;;;;5084243;28;20450;-92
2022/02/17 08:46:42;;;;;;;117.67;56.50;;;;;;;;;;5083736;28;20484;-96
2022/02/17 08:49:10;;;;;;;118.30;57.00;;;;;;;;;;5071596;28;20438;-96
2022/02/17 08:51:37;;;;;;;118.07;58.00;;;;;;;;;;5076876;28;20549;-96
2022/02/17 08:54:04;;;;;;;121.87;58.77;;;;;;;;;;5071459;28;20732;-93
2022/02/17 08:56:32;;;;;;;111.27;57.50;;;;;;;;;;5076478;28;20476;-93
2022/02/17 08:58:59;;;;;;;112.60;56.70;;;;;;;;;;5072577;28;20446;-93
2022/02/17 09:01:25;;;;;;;115.77;57.13;;;;;;;;;;5070862;28;20465;-93
2022/02/17 09:03:52;;;;;;;116.10;59.30;;;;;;;;;;5073923;28;20435;-90
2022/02/17 09:06:18;;;;;;;110.40;57.23;;;;;;;;;;5061756;28;20561;-90
2022/02/17 09:08:45;;;;;;;115.67;57.87;;;;;;;;;;5071779;28;20438;-91
2022/02/17 09:11:12;;;;;;;120.20;56.60;;;;;;;;;;5080960;28;21072;-90
2022/02/17 09:13:40;;;;;;;116.77;58.80;;;;;;;;;;5077256;28;20480;-90
2022/02/17 09:16:06;;;;;;;116.47;59.10;;;;;;;;;;5079002;28;20441;-90
2022/02/17 09:18:33;;;;;;;115.00;55.07;;;;;;;;;;5081746;28;20445;-90
2022/02/17 09:20:59;;;;;;;126.03;62.00;;;;;;;;;;5082620;28;20468;-90
2022/02/17 09:23:26;;;;;;;120.50;60.57;;;;;;;;;;5071996;28;20476;-90
2022/02/17 09:25:52;;;;;;;126.33;64.60;;;;;;;;;;5077220;28;20498;-89
2022/02/17 09:28:19;;;;;;;122.27;61.43;;;;;;;;;;5075270;28;20515;-89
2022/02/17 09:30:47;;;;;;;124.10;61.23;;;;;;;;;;5079465;28;20488;-89
2022/02/17 09:33:14;;;;;;;121.80;62.10;;;;;;;;;;5068838;28;20478;-89
2022/02/17 09:35:40;;;;;;;118.90;62.07;;;;;;;;;;5060482;28;20451;-89
2022/02/17 09:38:07;;;;;;;123.07;61.50;;;;;;;;;;5060512;28;20477;-89
2022/02/17 09:40:33;;;;;;;117.67;58.67;;;;;;;;;;5058531;28;20454;-89
2022/02/17 09:43:00;;;;;;;112.20;57.73;;;;;;;;;;5060430;28;20455;-89
2022/02/17 09:45:27;;;;;;;122.17;60.70;;;;;;;;;;5062871;28;20446;-89
2022/02/17 09:47:56;;;;;;;126.47;59.50;;;;;;;;;;5062481;28;20484;-89
2022/02/17 09:50:23;;;;;;;114.03;58.40;;;;;;;;;;5061885;28;20469;-89
2022/02/17 09:52:50;;;;;;;109.47;56.13;;;;;;;;;;5061427;28;20525;-89
2022/02/17 09:55:21;;;;;;;114.70;57.37;;;;;;;;;;5061541;28;20909;-89
2022/02/17 09:57:48;;;;;;;107.97;56.77;;;;;;;;;;5061349;28;20444;-89
2022/02/17 10:00:15;;;;;;;109.03;56.90;;;;;;;;;;5062242;28;20526;-90
2022/02/17 10:02:44;;;;;;;110.10;57.60;;;;;;;;;;5062372;28;20518;-89
2022/02/17 10:05:12;;;;;;;110.37;56.90;;;;;;;;;;5062357;28;20462;-89
2022/02/17 10:07:42;;;;;;;112.73;58.20;;;;;;;;;;5044239;28;20438;-89
2022/02/17 10:10:10;;;;;;;115.53;58.00;;;;;;;;;;5062273;28;20451;-90
2022/02/17 10:12:49;;;;;;;113.17;57.87;;;;;;;;;;5062306;28;20490;-90
2022/02/17 10:15:25;;;;;;;115.70;59.57;;;;;;;;;;5062303;28;20470;-90
2022/02/17 10:17:59;;;;;;;110.53;57.67;;;;;;;;;;5062520;28;20506;-90
2022/02/17 10:20:27;;;;;;;114.80;60.17;;;;;;;;;;5062106;28;21127;-89
2022/02/17 10:22:54;;;;;;;110.63;57.57;;;;;;;;;;5062258;28;20954;-90
2022/02/17 10:25:20;;;;;;;117.20;57.30;;;;;;;;;;5061269;28;20485;-90
2022/02/17 10:27:47;;;;;;;114.00;57.87;;;;;;;;;;5061206;28;20534;-88
2022/02/17 10:30:14;;;;;;;113.23;58.90;;;;;;;;;;5061423;28;20476;-88
2022/02/17 10:32:52;;;;;;;116.80;58.53;;;;;;;;;;5061506;28;20493;-88
2022/02/17 10:35:18;;;;;;;124.23;60.80;;;;;;;;;;5060469;28;20450;-87
2022/02/17 10:37:47;;;;;;;124.27;62.77;;;;;;;;;;5060068;28;20620;-87
2022/02/17 10:40:18;;;;;;;119.93;61.40;;;;;;;;;;5059843;28;20508;-87
2022/02/17 10:42:57;;;;;;;117.30;61.57;;;;;;;;;;5060121;28;20450;-87
2022/02/17 10:45:23;;;;;;;118.20;60.53;;;;;;;;;;5061275;28;20445;-87
2022/02/17 10:47:50;;;;;;;113.28;59.22;;;;;;;;;;5061542;28;20474;-87
2022/02/17 10:50:17;;;;;;;119.57;60.40;;;;;;;;;;5061712;28;20208;-88
2022/02/17 10:52:47;;;;;;;118.37;62.13;;;;;;;;;;5061895;28;20561;-88
2022/02/17 10:55:14;;;;;;;112.77;58.30;;;;;;;;;;5061749;28;20438;-88
2022/02/17 10:57:41;;;;;;;109.70;58.60;;;;;;;;;;5062299;28;20476;-90
2022/02/17 11:00:14;;;;;;;105.23;56.07;;;;;;;;;;5068106;28;20438;-92
2022/02/17 11:02:41;;;;;;;109.00;58.77;;;;;;;;;;5068503;28;20459;-90
2022/02/17 11:05:07;;;;;;;108.97;56.97;;;;;;;;;;5081454;28;20941;-92
2022/02/17 11:07:34;;;;;;;112.20;57.73;;;;;;;;;;5078338;28;20483;-94
2022/02/17 11:10:03;;;;;;;116.53;58.20;;;;;;;;;;5073450;28;20438;-94
2022/02/17 11:12:29;;;;;;;114.20;60.87;;;;;;;;;;5073326;28;20497;-94
2022/02/17 11:14:57;;;;;;;115.10;56.80;;;;;;;;;;5079743;28;20823;-93
2022/02/17 11:17:25;;;;;;;107.23;57.33;;;;;;;;;;5081260;28;20461;-92
2022/02/17 11:19:51;;;;;;;104.50;53.93;;;;;;;;;;5081018;28;21054;-92
2022/02/17 11:22:18;;;;;;;109.80;56.67;;;;;;;;;;5081601;28;20768;-90
2022/02/17 11:24:49;;;;;;;102.83;53.67;;;;;;;;;;5081937;28;20471;-93
2022/02/17 11:27:18;;;;;;;104.10;54.73;;;;;;;;;;5082511;28;20515;-93
2022/02/17 11:29:45;;;;;;;105.17;55.03;;;;;;;;;;5084656;28;20481;-91
2022/02/17 11:32:14;;;;;;;116.33;55.30;;;;;;;;;;5080829;28;20503;-93
2022/02/17 11:34:43;;;;;;;103.57;55.43;;;;;;;;;;5082269;28;20445;-90
2022/02/17 11:37:30;;;;;;;100.90;54.20;;;;;;;;;;5084582;28;20480;-91
2022/02/17 11:39:58;;;;;;;105.10;55.40;;;;;;;;;;5085027;28;20446;-89
2022/02/17 11:42:29;;;;;;;109.43;56.47;;;;;;;;;;5085259;28;20485;-92
2022/02/17 11:45:09;;;;;;;102.57;54.20;;;;;;;;;;5084491;28;20449;-93
2022/02/17 11:47:54;;;;;;;103.27;55.70;;;;;;;;;;5066117;28;20499;-90
2022/02/17 11:50:35;;;;;;;101.73;54.03;;;;;;;;;;5067160;28;20449;-93
2022/02/17 11:53:20;;;;;;;103.40;54.70;;;;;;;;;;5084646;28;20516;-91
2022/02/17 11:55:47;;;;;;;102.00;54.60;;;;;;;;;;5084335;28;20555;-90
2022/02/17 11:58:32;;;;;;;102.90;54.93;;;;;;;;;;5084055;28;20479;-91
2022/02/17 12:01:20;;;;;;;104.70;56.80;;;;;;;;;;5083482;28;20457;-92
2022/02/17 12:03:56;;;;;;;104.40;55.67;;;;;;;;;;5083297;28;20472;-91
2022/02/17 12:06:31;;;;;;;104.17;55.87;;;;;;;;;;5083952;28;20449;-93
2022/02/17 12:08:57;;;;;;;109.23;55.70;;;;;;;;;;5084012;28;20453;-91
2022/02/17 12:11:34;;;;;;;105.90;57.60;;;;;;;;;;5084364;28;20449;-89
2022/02/17 12:14:04;;;;;;;105.20;56.70;;;;;;;;;;5083415;28;21263;-91
2022/02/17 12:16:39;;;;;;;107.97;58.47;;;;;;;;;;5083519;28;20462;-95
2022/02/17 12:19:09;;;;;;;110.87;57.60;;;;;;;;;;5083843;28;20515;-86
2022/02/17 12:21:37;;;;;;;111.07;58.30;;;;;;;;;;5084724;28;20479;-91
2022/02/17 12:24:03;;;;;;;108.87;58.43;;;;;;;;;;5084404;28;20445;-87
2022/02/17 12:26:40;;;;;;;109.10;57.70;;;;;;;;;;5084521;28;20480;-92
2022/02/17 12:29:19;;;;;;;106.37;55.53;;;;;;;;;;5084488;28;20520;-89
2022/02/17 12:31:47;;;;;;;108.67;57.63;;;;;;;;;;5084343;28;20531;-91
2022/02/17 12:34:13;;;;;;;106.17;57.00;;;;;;;;;;5084011;28;20503;-89
2022/02/17 12:36:40;;;;;;;109.57;57.80;;;;;;;;;;5084228;28;20442;-88
2022/02/17 12:39:07;;;;;;;106.70;56.43;;;;;;;;;;5082639;28;20442;-91
2022/02/17 12:41:33;;;;;;;109.73;57.37;;;;;;;;;;5084109;28;20483;-88
2022/02/17 12:44:00;;;;;;;104.97;55.47;;;;;;;;;;5083773;28;20449;-91
2022/02/17 12:46:27;;;;;;;108.77;58.10;;;;;;;;;;5081356;28;20458;-89
2022/02/17 12:48:55;;;;;;;105.20;56.43;;;;;;;;;;5078781;28;20450;-90
2022/02/17 12:51:26;;;;;;;105.57;55.87;;;;;;;;;;5063464;28;20480;-89
2022/02/17 12:53:54;;;;;;;107.20;58.20;;;;;;;;;;5067764;28;20484;-92
2022/02/17 12:56:21;;;;;;;111.37;59.20;;;;;;;;;;5082568;28;20481;-90
2022/02/17 12:58:48;;;;;;;110.40;57.20;;;;;;;;;;5082985;28;20509;-91
2022/02/17 13:01:21;;;;;;;107.20;57.93;;;;;;;;;;5083844;28;21008;-92
2022/02/17 13:03:48;;;;;;;109.00;59.20;;;;;;;;;;5083220;28;20445;-91
2022/02/17 13:06:19;;;;;;;113.10;60.03;;;;;;;;;;5082309;28;20453;-91
2022/02/17 13:08:46;;;;;;;109.70;58.00;;;;;;;;;;5082202;28;20472;-93
2022/02/17 13:11:13;;;;;;;106.40;57.77;;;;;;;;;;5082759;28;21012;-92
2022/02/17 13:13:39;;;;;;;112.20;57.93;;;;;;;;;;5082933;28;20588;-91
2022/02/17 13:16:06;;;;;;;111.23;58.83;;;;;;;;;;5082131;28;20483;-90
2022/02/17 13:18:33;;;;;;;105.67;57.50;;;;;;;;;;5081699;28;20514;-90
2022/02/17 13:21:09;;;;;;;104.93;56.13;;;;;;;;;;5081794;28;20446;-91
2022/02/17 13:23:37;;;;;;;105.70;57.00;;;;;;;;;;5082306;28;20477;-93
2022/02/17 13:26:04;;;;;;;105.07;55.10;;;;;;;;;;5083397;28;20449;-92
2022/02/17 13:28:30;;;;;;;105.07;56.50;;;;;;;;;;5083334;28;20442;-95
2022/02/17 13:30:57;;;;;;;103.77;56.93;;;;;;;;;;5083193;28;20484;-92
2022/02/17 13:33:27;;;;;;;104.63;56.33;;;;;;;;;;5082824;28;20523;-91
2022/02/17 13:35:56;;;;;;;106.60;56.93;;;;;;;;;;5081955;28;20441;-94
2022/02/17 13:38:26;;;;;;;110.53;57.57;;;;;;;;;;5081959;28;20483;-94
2022/02/17 13:40:56;;;;;;;105.60;55.87;;;;;;;;;;5081854;28;20460;-92
2022/02/17 13:43:23;;;;;;;107.50;58.47;;;;;;;;;;5077914;28;20453;-94
2022/02/17 13:45:59;;;;;;;103.17;56.03;;;;;;;;;;5081305;28;20453;-93
2022/02/17 13:48:31;;;;;;;105.17;56.30;;;;;;;;;;5082549;28;20545;-94
2022/02/17 13:51:05;;;;;;;103.77;57.10;;;;;;;;;;5081948;28;20689;-91
2022/02/17 13:53:36;;;;;;;103.30;55.90;;;;;;;;;;5082311;28;20893;-93
2022/02/17 13:56:04;;;;;;;102.33;55.50;;;;;;;;;;5081792;28;20449;-92
2022/02/17 13:58:31;;;;;;;106.83;56.37;;;;;;;;;;5080627;28;20504;-90
2022/02/17 14:00:58;;;;;;;106.17;57.40;;;;;;;;;;5081010;28;20517;-92
2022/02/17 14:03:26;;;;;;;104.33;55.17;;;;;;;;;;5081989;28;20445;-95
2022/02/17 14:05:53;;;;;;;100.90;54.37;;;;;;;;;;5081379;28;20449;-94
2022/02/17 14:08:20;;;;;;;103.40;55.47;;;;;;;;;;5082713;28;20483;-95
2022/02/17 14:10:47;;;;;;;103.90;55.70;;;;;;;;;;5081051;28;20442;-91